createdAt,value
2018-09-30T00:00:33.055Z,7.80
2018-09-30T00:01:43.247Z,7.80
2018-09-30T00:02:53.026Z,7.80
2018-09-30T00:04:02.974Z,7.80
2018-09-30T00:05:12.590Z,7.80
2018-09-30T00:06:22.053Z,7.80
2018-09-30T00:07:31.849Z,7.80
2018-09-30T00:08:41.549Z,7.90
2018-09-30T00:09:51.298Z,7.90
2018-09-30T00:11:00.899Z,7.90
2018-09-30T00:12:10.473Z,8.00
2018-09-30T00:13:20.025Z,7.90
2018-09-30T00:14:29.657Z,7.90
2018-09-30T00:15:39.198Z,7.90
2018-09-30T00:16:48.941Z,7.80
2018-09-30T00:17:58.368Z,7.80
2018-09-30T00:19:07.993Z,7.70
2018-09-30T00:20:17.540Z,7.70
2018-09-30T00:21:27.096Z,7.70
2018-09-30T00:22:36.887Z,7.70
2018-09-30T00:23:51.974Z,7.70
2018-09-30T00:25:06.995Z,7.70
2018-09-30T00:26:21.987Z,7.60
2018-09-30T00:27:31.750Z,7.60
2018-09-30T00:28:47.576Z,7.60
2018-09-30T00:29:57.332Z,7.70
2018-09-30T00:31:07.272Z,7.60
2018-09-30T00:32:16.921Z,7.60
2018-09-30T00:33:26.943Z,7.60
2018-09-30T00:34:36.612Z,7.50
2018-09-30T00:35:46.181Z,7.60
2018-09-30T00:36:58.042Z,7.60
2018-09-30T00:38:07.839Z,7.60
2018-09-30T00:39:17.477Z,7.60
2018-09-30T00:40:27.138Z,7.50
2018-09-30T00:41:36.804Z,7.50
2018-09-30T00:42:46.447Z,7.50
2018-09-30T00:43:56.339Z,7.50
2018-09-30T00:45:06.156Z,7.60
2018-09-30T00:46:15.905Z,7.50
2018-09-30T00:47:25.360Z,7.50
2018-09-30T00:48:35.427Z,7.50
2018-09-30T00:49:45.163Z,7.50
2018-09-30T00:50:54.936Z,7.50
2018-09-30T00:52:04.434Z,7.50
2018-09-30T00:53:14.139Z,7.50
2018-09-30T00:54:23.822Z,7.40
2018-09-30T00:55:33.525Z,7.50
2018-09-30T00:56:43.246Z,7.50
2018-09-30T00:57:52.952Z,7.50
2018-09-30T00:59:02.557Z,7.50
2018-09-30T01:00:12.247Z,7.50
2018-09-30T01:01:22.080Z,7.50
2018-09-30T01:02:31.701Z,7.50
2018-09-30T01:03:41.306Z,7.50
2018-09-30T01:04:51.060Z,7.40
2018-09-30T01:06:00.741Z,7.40
2018-09-30T01:07:10.495Z,7.40
2018-09-30T01:08:20.318Z,7.40
2018-09-30T01:09:29.889Z,7.40
2018-09-30T01:10:39.567Z,7.40
2018-09-30T01:11:49.647Z,7.40
2018-09-30T01:12:59.223Z,7.40
2018-09-30T01:14:08.982Z,7.40
2018-09-30T01:15:18.713Z,7.40
2018-09-30T01:16:28.589Z,7.40
2018-09-30T01:17:41.644Z,7.50
2018-09-30T01:18:51.186Z,7.50
2018-09-30T01:20:00.873Z,7.40
2018-09-30T01:21:10.561Z,7.40
2018-09-30T01:22:25.505Z,7.40
2018-09-30T01:23:35.381Z,7.40
2018-09-30T01:24:45.066Z,7.40
2018-09-30T01:25:54.526Z,7.40
2018-09-30T01:28:19.859Z,7.30
2018-09-30T01:29:29.438Z,7.30
2018-09-30T01:30:39.014Z,7.30
2018-09-30T01:31:48.926Z,7.30
2018-09-30T01:33:04.160Z,7.20
2018-09-30T01:34:13.585Z,7.20
2018-09-30T01:35:23.373Z,7.20
2018-09-30T01:36:33.088Z,7.30
2018-09-30T01:37:42.722Z,7.30
2018-09-30T01:38:52.470Z,7.30
2018-09-30T01:40:02.286Z,7.30
2018-09-30T01:41:11.904Z,7.40
2018-09-30T01:42:28.171Z,7.30
2018-09-30T01:43:41.574Z,7.20
2018-09-30T01:44:51.112Z,7.30
2018-09-30T01:46:00.600Z,7.30
2018-09-30T01:47:10.247Z,7.20
2018-09-30T01:48:24.415Z,7.20
2018-09-30T01:49:34.292Z,7.20
2018-09-30T01:50:43.920Z,7.20
2018-09-30T01:52:05.121Z,7.20
2018-09-30T01:53:15.406Z,7.20
2018-09-30T01:54:25.222Z,7.20
2018-09-30T01:55:35.249Z,7.20
2018-09-30T01:56:44.819Z,7.30
2018-09-30T01:57:54.582Z,7.20
2018-09-30T01:59:04.226Z,7.20
2018-09-30T02:00:13.878Z,7.20
2018-09-30T02:01:23.578Z,7.20
2018-09-30T02:02:33.116Z,7.20
2018-09-30T02:03:45.946Z,7.20
2018-09-30T02:04:55.701Z,7.20
2018-09-30T02:06:05.329Z,7.10
2018-09-30T02:07:15.031Z,7.20
2018-09-30T02:08:24.819Z,7.10
2018-09-30T02:09:37.685Z,7.10
2018-09-30T02:10:47.285Z,7.10
2018-09-30T02:11:57.089Z,7.00
2018-09-30T02:13:06.614Z,7.00
2018-09-30T02:14:16.340Z,7.00
2018-09-30T02:15:25.909Z,7.00
2018-09-30T02:16:35.607Z,6.90
2018-09-30T02:17:45.199Z,7.00
2018-09-30T02:18:54.792Z,6.90
2018-09-30T02:20:07.818Z,6.90
2018-09-30T02:21:17.622Z,6.90
2018-09-30T02:22:28.166Z,6.80
2018-09-30T02:23:37.918Z,6.90
2018-09-30T02:24:47.427Z,6.90
2018-09-30T02:26:00.382Z,7.00
2018-09-30T02:27:10.118Z,7.10
2018-09-30T02:28:19.809Z,7.20
2018-09-30T02:29:29.565Z,7.20
2018-09-30T02:30:42.945Z,7.10
2018-09-30T02:31:52.511Z,7.10
2018-09-30T02:33:01.989Z,7.20
2018-09-30T02:34:11.673Z,7.10
2018-09-30T02:35:21.326Z,7.00
2018-09-30T02:36:34.662Z,7.00
2018-09-30T02:37:44.395Z,7.00
2018-09-30T02:38:54.074Z,7.00
2018-09-30T02:40:03.470Z,7.00
2018-09-30T02:41:13.200Z,7.00
2018-09-30T02:42:22.780Z,7.00
2018-09-30T02:43:32.396Z,7.00
2018-09-30T02:44:42.187Z,7.00
2018-09-30T02:45:51.706Z,7.00
2018-09-30T02:47:04.852Z,7.00
2018-09-30T02:48:14.425Z,7.00
2018-09-30T02:49:24.074Z,7.00
2018-09-30T02:50:33.691Z,7.00
2018-09-30T02:51:43.540Z,7.00
2018-09-30T02:52:53.234Z,7.00
2018-09-30T02:54:02.932Z,7.00
2018-09-30T02:55:12.564Z,7.00
2018-09-30T02:56:22.157Z,7.00
2018-09-30T02:57:32.146Z,7.00
2018-09-30T02:58:41.797Z,7.10
2018-09-30T02:59:51.381Z,7.00
2018-09-30T03:01:01.245Z,7.00
2018-09-30T03:02:10.873Z,7.00
2018-09-30T03:03:20.409Z,7.00
2018-09-30T03:04:30.000Z,6.90
2018-09-30T03:05:39.507Z,6.90
2018-09-30T03:06:54.586Z,7.00
2018-09-30T03:08:09.502Z,7.00
2018-09-30T03:09:19.504Z,7.00
2018-09-30T03:10:29.261Z,7.00
2018-09-30T03:11:39.129Z,7.00
2018-09-30T03:12:48.738Z,7.00
2018-09-30T03:13:58.155Z,7.00
2018-09-30T03:15:07.696Z,6.90
2018-09-30T03:16:21.335Z,6.90
2018-09-30T03:17:31.236Z,6.90
2018-09-30T03:18:40.840Z,6.90
2018-09-30T03:19:50.593Z,6.90
2018-09-30T03:21:03.845Z,6.90
2018-09-30T03:22:13.464Z,6.90
2018-09-30T03:23:23.398Z,6.90
2018-09-30T03:24:32.988Z,6.90
2018-09-30T03:25:48.225Z,6.90
2018-09-30T03:26:58.014Z,6.90
2018-09-30T03:28:07.783Z,6.90
2018-09-30T03:29:17.429Z,6.90
2018-09-30T03:30:27.026Z,6.90
2018-09-30T03:31:36.896Z,6.90
2018-09-30T03:32:46.482Z,6.90
2018-09-30T03:33:56.417Z,6.90
2018-09-30T03:35:06.204Z,6.90
2018-09-30T03:36:15.729Z,6.90
2018-09-30T03:37:25.450Z,6.90
2018-09-30T03:38:35.438Z,6.90
2018-09-30T03:39:45.391Z,6.80
2018-09-30T03:40:55.146Z,6.80
2018-09-30T03:42:04.853Z,6.90
2018-09-30T03:43:14.562Z,6.90
2018-09-30T03:44:24.026Z,6.90
2018-09-30T03:45:33.731Z,6.90
2018-09-30T03:46:46.786Z,6.90
2018-09-30T03:47:56.690Z,6.80
2018-09-30T03:49:06.311Z,6.80
2018-09-30T03:50:15.941Z,6.80
2018-09-30T03:51:25.557Z,6.80
2018-09-30T03:52:40.649Z,6.80
2018-09-30T03:53:50.506Z,6.90
2018-09-30T03:55:00.247Z,6.90
2018-09-30T03:56:10.149Z,6.90
2018-09-30T03:57:23.351Z,6.80
2018-09-30T03:58:33.134Z,6.90
2018-09-30T03:59:42.820Z,6.90
2018-09-30T04:00:52.594Z,6.90
2018-09-30T04:02:02.385Z,6.80
2018-09-30T04:03:12.211Z,6.80
2018-09-30T04:04:21.873Z,6.80
2018-09-30T04:05:31.582Z,6.80
2018-09-30T04:06:41.260Z,6.80
2018-09-30T04:07:56.358Z,6.80
2018-09-30T04:09:07.690Z,6.80
2018-09-30T04:10:17.283Z,6.80
2018-09-30T04:11:27.049Z,6.80
2018-09-30T04:12:36.800Z,6.70
2018-09-30T04:13:50.414Z,6.80
2018-09-30T04:15:00.061Z,6.70
2018-09-30T04:16:09.753Z,6.70
2018-09-30T04:17:19.486Z,6.70
2018-09-30T04:18:29.235Z,6.80
2018-09-30T04:19:38.721Z,6.80
2018-09-30T04:20:48.607Z,6.80
2018-09-30T04:21:58.401Z,6.80
2018-09-30T04:23:08.110Z,6.80
2018-09-30T04:24:23.189Z,6.80
2018-09-30T04:25:33.038Z,6.80
2018-09-30T04:26:42.830Z,6.80
2018-09-30T04:27:52.468Z,6.70
2018-09-30T04:29:01.977Z,6.70
2018-09-30T04:30:15.600Z,6.80
2018-09-30T04:31:25.390Z,6.80
2018-09-30T04:32:34.999Z,6.70
2018-09-30T04:33:44.693Z,6.70
2018-09-30T04:34:54.185Z,6.70
2018-09-30T04:36:03.782Z,6.80
2018-09-30T04:37:13.481Z,6.80
2018-09-30T04:38:22.953Z,6.80
2018-09-30T04:39:32.772Z,6.70
2018-09-30T04:40:42.570Z,6.70
2018-09-30T04:41:52.242Z,6.70
2018-09-30T04:43:01.961Z,6.70
2018-09-30T04:44:11.647Z,6.70
2018-09-30T04:45:24.958Z,6.70
2018-09-30T04:46:34.618Z,6.70
2018-09-30T04:47:44.129Z,6.80
2018-09-30T04:48:53.920Z,6.80
2018-09-30T04:50:13.205Z,6.80
2018-09-30T04:51:22.682Z,6.80
2018-09-30T04:52:32.638Z,6.80
2018-09-30T04:53:42.597Z,6.80
2018-09-30T04:54:52.286Z,6.80
2018-09-30T04:56:01.902Z,6.80
2018-09-30T04:57:11.566Z,6.80
2018-09-30T04:58:21.076Z,6.80
2018-09-30T04:59:30.817Z,6.80
2018-09-30T05:00:40.667Z,6.80
2018-09-30T05:01:50.518Z,6.80
2018-09-30T05:03:00.290Z,6.80
2018-09-30T05:04:09.814Z,6.80
2018-09-30T05:05:19.536Z,6.80
2018-09-30T05:06:29.245Z,6.80
2018-09-30T05:07:38.714Z,6.80
2018-09-30T05:08:48.597Z,6.80
2018-09-30T05:09:58.224Z,6.80
2018-09-30T05:11:07.847Z,6.80
2018-09-30T05:12:17.722Z,6.80
2018-09-30T05:13:27.583Z,6.90
2018-09-30T05:14:37.368Z,6.80
2018-09-30T05:15:47.113Z,6.80
2018-09-30T05:16:56.917Z,6.90
2018-09-30T05:18:06.575Z,6.90
2018-09-30T05:19:16.362Z,6.90
2018-09-30T05:20:26.248Z,6.80
2018-09-30T05:21:35.859Z,6.80
2018-09-30T05:22:45.422Z,6.90
2018-09-30T05:23:55.019Z,6.80
2018-09-30T05:25:04.782Z,6.80
2018-09-30T05:26:15.074Z,6.80
2018-09-30T05:27:24.725Z,6.80
2018-09-30T05:28:34.685Z,6.80
2018-09-30T05:29:44.456Z,6.80
2018-09-30T05:30:54.300Z,6.80
2018-09-30T05:32:04.069Z,6.80
2018-09-30T05:33:14.004Z,6.80
2018-09-30T05:34:23.897Z,6.80
2018-09-30T05:35:33.744Z,6.90
2018-09-30T05:36:43.379Z,6.90
2018-09-30T05:37:53.062Z,6.90
2018-09-30T05:39:02.514Z,6.90
2018-09-30T05:40:12.334Z,6.90
2018-09-30T05:41:22.340Z,6.90
2018-09-30T05:42:32.811Z,7.00
2018-09-30T05:43:42.623Z,6.90
2018-09-30T05:44:52.320Z,6.80
2018-09-30T05:46:02.410Z,6.80
2018-09-30T05:47:12.204Z,6.80
2018-09-30T05:48:21.807Z,6.80
2018-09-30T05:49:31.407Z,6.80
2018-09-30T05:50:41.074Z,6.90
2018-09-30T05:51:50.870Z,6.90
2018-09-30T05:53:00.544Z,6.90
2018-09-30T05:54:10.238Z,6.90
2018-09-30T05:55:26.270Z,6.90
2018-09-30T05:56:35.680Z,6.90
2018-09-30T05:57:45.364Z,6.80
2018-09-30T05:58:55.376Z,6.90
2018-09-30T06:00:05.276Z,6.90
2018-09-30T06:01:15.089Z,7.00
2018-09-30T06:02:24.756Z,6.90
2018-09-30T06:03:34.333Z,6.90
2018-09-30T06:04:43.986Z,6.90
2018-09-30T06:05:57.225Z,6.90
2018-09-30T06:07:07.058Z,7.00
2018-09-30T06:08:16.946Z,7.00
2018-09-30T06:09:27.026Z,7.00
2018-09-30T06:10:36.771Z,7.00
2018-09-30T06:11:47.171Z,7.00
2018-09-30T06:12:56.633Z,7.00
2018-09-30T06:14:06.450Z,7.00
2018-09-30T06:15:15.979Z,6.90
2018-09-30T06:16:25.545Z,7.00
2018-09-30T06:17:35.240Z,7.00
2018-09-30T06:18:44.880Z,7.00
2018-09-30T06:19:54.434Z,7.00
2018-09-30T06:21:04.108Z,7.10
2018-09-30T06:22:17.028Z,7.10
2018-09-30T06:23:26.692Z,7.10
2018-09-30T06:24:36.329Z,7.10
2018-09-30T06:25:46.013Z,7.20
2018-09-30T06:26:55.652Z,7.20
2018-09-30T06:28:05.178Z,7.20
2018-09-30T06:29:14.790Z,7.20
2018-09-30T06:30:24.517Z,7.20
2018-09-30T06:31:34.021Z,7.30
2018-09-30T06:32:43.597Z,7.30
2018-09-30T06:33:53.344Z,7.40
2018-09-30T06:35:03.878Z,7.40
2018-09-30T06:36:13.698Z,7.40
2018-09-30T06:37:27.230Z,7.40
2018-09-30T06:38:36.922Z,7.40
2018-09-30T06:39:46.485Z,7.40
2018-09-30T06:40:56.139Z,7.40
2018-09-30T06:42:05.829Z,7.50
2018-09-30T06:43:15.439Z,7.40
2018-09-30T06:44:25.082Z,7.50
2018-09-30T06:45:34.753Z,7.50
2018-09-30T06:46:44.371Z,7.50
2018-09-30T06:47:54.046Z,7.60
2018-09-30T06:49:03.609Z,7.60
2018-09-30T06:50:13.120Z,7.60
2018-09-30T06:51:22.861Z,7.70
2018-09-30T06:52:32.748Z,7.70
2018-09-30T06:53:42.457Z,7.80
2018-09-30T06:54:52.154Z,7.80
2018-09-30T06:56:02.510Z,7.90
2018-09-30T06:57:12.021Z,7.90
2018-09-30T06:58:21.665Z,8.00
2018-09-30T06:59:31.307Z,8.00
2018-09-30T07:00:40.994Z,7.90
2018-09-30T07:01:50.628Z,8.00
2018-09-30T07:03:00.646Z,8.00
2018-09-30T07:04:10.392Z,8.00
2018-09-30T07:05:19.959Z,8.00
2018-09-30T07:06:29.844Z,8.00
2018-09-30T07:07:39.385Z,8.00
2018-09-30T07:08:49.057Z,8.10
2018-09-30T07:09:58.638Z,8.10
2018-09-30T07:11:08.235Z,8.10
2018-09-30T07:12:17.988Z,8.20
2018-09-30T07:13:27.714Z,8.20
2018-09-30T07:14:37.521Z,8.20
2018-09-30T07:15:47.042Z,8.20
2018-09-30T07:16:56.734Z,8.20
2018-09-30T07:18:06.214Z,8.30
2018-09-30T07:19:15.730Z,8.30
2018-09-30T07:20:25.255Z,8.40
2018-09-30T07:21:34.821Z,8.40
2018-09-30T07:22:44.341Z,8.50
2018-09-30T07:23:53.970Z,8.50
2018-09-30T07:25:03.572Z,8.50
2018-09-30T07:26:13.321Z,8.60
2018-09-30T07:27:23.082Z,8.60
2018-09-30T07:28:32.815Z,8.70
2018-09-30T07:29:42.630Z,8.70
2018-09-30T07:30:52.233Z,8.70
2018-09-30T07:32:01.843Z,8.70
2018-09-30T07:33:11.457Z,8.70
2018-09-30T07:34:21.208Z,8.80
2018-09-30T07:35:30.919Z,8.90
2018-09-30T07:36:40.605Z,8.90
2018-09-30T07:37:50.137Z,8.90
2018-09-30T07:38:59.825Z,9.00
2018-09-30T07:40:09.489Z,9.00
2018-09-30T07:41:19.351Z,9.10
2018-09-30T07:42:32.347Z,9.20
2018-09-30T07:43:41.913Z,9.20
2018-09-30T07:44:51.682Z,9.20
2018-09-30T07:46:01.296Z,9.20
2018-09-30T07:47:10.906Z,9.30
2018-09-30T07:48:20.654Z,9.30
2018-09-30T07:49:30.542Z,9.30
2018-09-30T07:50:39.973Z,9.30
2018-09-30T07:51:49.709Z,9.30
2018-09-30T07:53:03.062Z,9.40
2018-09-30T07:54:12.730Z,9.40
2018-09-30T07:55:22.477Z,9.60
2018-09-30T07:56:31.942Z,9.70
2018-09-30T07:57:41.778Z,9.80
2018-09-30T07:58:54.858Z,9.90
2018-09-30T08:00:05.637Z,9.90
2018-09-30T08:01:15.241Z,9.90
2018-09-30T08:02:25.080Z,9.90
2018-09-30T08:03:34.587Z,10.00
2018-09-30T08:04:44.313Z,9.90
2018-09-30T08:05:53.927Z,10.00
2018-09-30T08:07:03.523Z,10.10
2018-09-30T08:08:19.043Z,10.20
2018-09-30T08:09:28.790Z,10.30
2018-09-30T08:10:38.242Z,10.30
2018-09-30T08:11:47.868Z,10.30
2018-09-30T08:12:57.473Z,10.40
2018-09-30T08:14:07.045Z,10.50
2018-09-30T08:15:16.851Z,10.50
2018-09-30T08:16:26.972Z,10.60
2018-09-30T08:17:36.798Z,10.60
2018-09-30T08:18:46.613Z,10.60
2018-09-30T08:19:56.527Z,10.60
2018-09-30T08:21:06.432Z,10.70
2018-09-30T08:22:15.994Z,10.80
2018-09-30T08:23:25.662Z,10.80
2018-09-30T08:24:35.495Z,10.80
2018-09-30T08:25:45.032Z,10.90
2018-09-30T08:26:54.662Z,11.00
2018-09-30T08:28:04.350Z,11.00
2018-09-30T08:29:14.023Z,11.10
2018-09-30T08:30:23.451Z,11.10
2018-09-30T08:31:33.878Z,11.20
2018-09-30T08:32:51.997Z,11.30
2018-09-30T08:34:01.910Z,11.40
2018-09-30T08:35:11.642Z,11.40
2018-09-30T08:36:21.485Z,11.50
2018-09-30T08:38:34.603Z,11.50
2018-09-30T08:39:44.629Z,11.50
2018-09-30T08:40:59.444Z,11.40
2018-09-30T08:42:09.322Z,11.50
2018-09-30T08:43:18.987Z,11.50
2018-09-30T08:44:28.685Z,11.50
2018-09-30T08:45:38.398Z,11.50
2018-09-30T08:46:48.091Z,11.60
2018-09-30T08:47:57.955Z,11.70
2018-09-30T08:49:07.700Z,11.80
2018-09-30T08:50:17.516Z,11.80
2018-09-30T08:51:27.185Z,11.90
2018-09-30T08:52:36.951Z,11.90
2018-09-30T08:53:46.606Z,12.00
2018-09-30T08:54:56.276Z,12.10
2018-09-30T08:56:06.073Z,12.10
2018-09-30T08:57:15.747Z,12.10
2018-09-30T08:58:26.423Z,12.20
2018-09-30T08:59:35.904Z,12.30
2018-09-30T09:00:45.868Z,12.30
2018-09-30T09:01:55.630Z,12.30
2018-09-30T09:03:05.373Z,12.40
2018-09-30T09:04:15.105Z,12.40
2018-09-30T09:05:24.643Z,12.40
2018-09-30T09:06:34.263Z,12.50
2018-09-30T09:07:43.741Z,12.60
2018-09-30T09:08:53.500Z,12.70
2018-09-30T09:10:03.138Z,12.70
2018-09-30T09:11:12.788Z,12.70
2018-09-30T09:12:22.410Z,12.80
2018-09-30T09:13:37.507Z,12.70
2018-09-30T09:14:47.148Z,12.80
2018-09-30T09:15:57.033Z,12.80
2018-09-30T09:17:06.657Z,12.80
2018-09-30T09:18:16.427Z,12.80
2018-09-30T09:19:29.901Z,12.80
2018-09-30T09:20:39.488Z,12.80
2018-09-30T09:21:49.256Z,12.90
2018-09-30T09:22:58.873Z,12.90
2018-09-30T09:24:14.557Z,13.00
2018-09-30T09:25:24.247Z,13.10
2018-09-30T09:26:34.115Z,13.30
2018-09-30T09:27:43.759Z,13.30
2018-09-30T09:28:53.621Z,13.30
2018-09-30T09:30:03.209Z,13.30
2018-09-30T09:31:12.913Z,13.40
2018-09-30T09:32:22.546Z,13.40
2018-09-30T09:33:32.402Z,13.50
2018-09-30T09:34:45.693Z,13.50
2018-09-30T09:35:55.490Z,13.50
2018-09-30T09:37:04.924Z,13.50
2018-09-30T09:38:14.761Z,13.50
2018-09-30T09:40:43.731Z,13.60
2018-09-30T09:41:53.553Z,13.60
2018-09-30T09:43:03.403Z,13.60
2018-09-30T09:44:12.986Z,13.60
2018-09-30T09:45:22.641Z,13.70
2018-09-30T09:46:32.481Z,13.70
2018-09-30T09:47:41.958Z,13.80
2018-09-30T09:48:51.747Z,13.80
2018-09-30T09:50:01.694Z,13.80
2018-09-30T09:51:11.183Z,13.80
2018-09-30T09:52:20.710Z,13.90
2018-09-30T09:53:30.408Z,13.90
2018-09-30T09:54:40.063Z,14.00
2018-09-30T09:55:49.836Z,14.10
2018-09-30T09:56:59.732Z,14.10
2018-09-30T09:58:09.513Z,14.20
2018-09-30T09:59:19.238Z,14.20
2018-09-30T10:00:30.763Z,14.20
2018-09-30T10:01:40.645Z,14.30
2018-09-30T10:02:50.425Z,14.40
2018-09-30T10:04:00.030Z,14.30
2018-09-30T10:05:09.874Z,14.40
2018-09-30T10:06:19.565Z,14.40
2018-09-30T10:07:29.061Z,14.50
2018-09-30T10:08:38.845Z,14.50
2018-09-30T10:09:48.510Z,14.50
2018-09-30T10:10:58.138Z,14.60
2018-09-30T10:12:07.855Z,14.60
2018-09-30T10:13:17.570Z,14.60
2018-09-30T10:14:27.327Z,14.60
2018-09-30T10:15:37.081Z,14.60
2018-09-30T10:16:46.930Z,14.70
2018-09-30T10:17:56.729Z,14.70
2018-09-30T10:19:06.273Z,14.70
2018-09-30T10:20:15.952Z,14.70
2018-09-30T10:21:25.860Z,14.70
2018-09-30T10:22:35.410Z,14.80
2018-09-30T10:23:44.979Z,14.80
2018-09-30T10:24:54.487Z,14.80
2018-09-30T10:26:03.970Z,14.80
2018-09-30T10:27:13.866Z,14.80
2018-09-30T10:28:23.734Z,14.80
2018-09-30T10:29:33.339Z,14.90
2018-09-30T10:30:43.121Z,14.90
2018-09-30T10:31:52.758Z,14.90
2018-09-30T10:33:02.706Z,15.00
2018-09-30T10:34:12.520Z,15.00
2018-09-30T10:35:22.168Z,15.00
2018-09-30T10:36:32.168Z,15.10
2018-09-30T10:37:42.097Z,15.00
2018-09-30T10:38:51.778Z,15.00
2018-09-30T10:40:04.673Z,15.00
2018-09-30T10:41:14.377Z,15.00
2018-09-30T10:42:23.895Z,15.10
2018-09-30T10:43:33.519Z,15.20
2018-09-30T10:44:52.608Z,15.30
2018-09-30T10:46:02.183Z,15.30
2018-09-30T10:47:11.897Z,15.30
2018-09-30T10:48:21.498Z,15.20
2018-09-30T10:49:31.275Z,15.30
2018-09-30T10:50:44.800Z,15.30
2018-09-30T10:51:54.357Z,15.40
2018-09-30T10:53:04.070Z,15.40
2018-09-30T10:54:13.684Z,15.50
2018-09-30T10:55:27.188Z,15.40
2018-09-30T10:56:36.698Z,15.50
2018-09-30T10:57:46.626Z,15.50
2018-09-30T10:58:56.391Z,15.50
2018-09-30T11:00:19.652Z,15.60
2018-09-30T11:01:29.315Z,15.60
2018-09-30T11:02:38.971Z,15.60
2018-09-30T11:03:48.814Z,15.70
2018-09-30T11:04:58.633Z,15.80
2018-09-30T11:06:08.268Z,15.90
2018-09-30T11:07:17.932Z,15.90
2018-09-30T11:08:27.727Z,16.00
2018-09-30T11:09:37.539Z,16.10
2018-09-30T11:10:47.137Z,16.00
2018-09-30T11:11:56.751Z,16.00
2018-09-30T11:13:06.661Z,16.00
2018-09-30T11:14:16.133Z,16.10
2018-09-30T11:15:25.790Z,16.20
2018-09-30T11:16:35.491Z,16.30
2018-09-30T11:17:45.091Z,16.30
2018-09-30T11:18:54.904Z,16.30
2018-09-30T11:20:04.434Z,16.30
2018-09-30T11:21:18.522Z,16.20
2018-09-30T11:22:28.499Z,16.20
2018-09-30T11:23:41.902Z,16.30
2018-09-30T11:24:51.600Z,16.30
2018-09-30T11:26:01.126Z,16.40
2018-09-30T11:27:10.849Z,16.40
2018-09-30T11:28:24.210Z,16.40
2018-09-30T11:29:33.964Z,16.40
2018-09-30T11:30:43.582Z,16.40
2018-09-30T11:31:53.265Z,16.40
2018-09-30T11:33:08.437Z,16.50
2018-09-30T11:34:18.083Z,16.50
2018-09-30T11:35:27.942Z,16.50
2018-09-30T11:36:37.472Z,16.50
2018-09-30T11:37:47.263Z,16.60
2018-09-30T11:38:57.145Z,16.60
2018-09-30T11:40:07.272Z,16.60
2018-09-30T11:41:16.779Z,16.60
2018-09-30T11:42:35.066Z,16.80
2018-09-30T11:43:44.901Z,16.70
2018-09-30T11:44:54.597Z,16.70
2018-09-30T11:46:04.165Z,16.70
2018-09-30T11:47:14.038Z,16.80
2018-09-30T11:48:23.822Z,16.80
2018-09-30T11:49:33.683Z,16.90
2018-09-30T11:50:43.337Z,16.90
2018-09-30T11:51:52.899Z,16.80
2018-09-30T11:53:02.643Z,16.80
2018-09-30T11:54:12.393Z,16.90
2018-09-30T11:55:21.893Z,16.90
2018-09-30T11:56:32.037Z,16.90
2018-09-30T11:57:41.505Z,17.00
2018-09-30T11:58:51.122Z,17.10
2018-09-30T12:00:00.969Z,17.10
2018-09-30T12:01:10.664Z,17.20
2018-09-30T12:02:20.430Z,17.10
2018-09-30T12:03:29.981Z,17.10
2018-09-30T12:04:39.710Z,17.00
2018-09-30T12:05:49.478Z,17.10
2018-09-30T12:06:59.067Z,17.10
2018-09-30T12:08:08.729Z,17.10
2018-09-30T12:09:18.282Z,17.20
2018-09-30T12:10:27.878Z,17.30
2018-09-30T12:11:37.647Z,17.30
2018-09-30T12:12:47.436Z,17.40
2018-09-30T12:13:57.193Z,17.40
2018-09-30T12:15:06.846Z,17.30
2018-09-30T12:16:16.491Z,17.30
2018-09-30T12:17:26.330Z,17.30
2018-09-30T12:18:36.116Z,17.30
2018-09-30T12:21:03.993Z,17.40
2018-09-30T12:22:13.733Z,17.50
2018-09-30T12:23:23.436Z,17.60
2018-09-30T12:24:33.196Z,17.70
2018-09-30T12:25:43.034Z,17.80
2018-09-30T12:26:52.853Z,18.00
2018-09-30T12:28:02.705Z,18.10
2018-09-30T12:29:12.370Z,18.20
2018-09-30T12:30:21.871Z,18.20
2018-09-30T12:31:31.630Z,18.30
2018-09-30T12:32:41.285Z,18.30
2018-09-30T12:33:51.021Z,18.40
2018-09-30T12:35:00.710Z,18.30
2018-09-30T12:36:10.468Z,18.40
2018-09-30T12:37:20.027Z,18.40
2018-09-30T12:38:29.811Z,18.40
2018-09-30T12:39:39.434Z,18.40
2018-09-30T12:40:52.668Z,18.50
2018-09-30T12:42:02.569Z,18.60
2018-09-30T12:43:12.306Z,18.70
2018-09-30T12:44:21.817Z,18.90
2018-09-30T12:45:31.393Z,19.00
2018-09-30T12:46:41.083Z,19.10
2018-09-30T12:47:51.206Z,19.30
2018-09-30T12:49:00.956Z,19.40
2018-09-30T12:50:10.690Z,19.60
2018-09-30T12:51:20.286Z,19.70
2018-09-30T12:52:30.154Z,19.80
2018-09-30T12:53:39.951Z,19.80
2018-09-30T12:54:50.041Z,19.60
2018-09-30T12:55:59.788Z,19.40
2018-09-30T12:57:09.427Z,19.50
2018-09-30T12:58:19.194Z,19.50
2018-09-30T12:59:29.092Z,19.70
2018-09-30T13:00:38.972Z,19.80
2018-09-30T13:01:48.532Z,19.90
2018-09-30T13:02:58.225Z,20.00
2018-09-30T13:04:07.769Z,20.10
2018-09-30T13:05:17.776Z,20.40
2018-09-30T13:06:27.526Z,20.60
2018-09-30T13:07:37.311Z,20.60
2018-09-30T13:08:47.001Z,20.60
2018-09-30T13:09:56.610Z,20.60
2018-09-30T13:11:06.645Z,20.60
2018-09-30T13:12:16.517Z,20.80
2018-09-30T13:13:26.303Z,21.00
2018-09-30T13:14:36.103Z,21.10
2018-09-30T13:15:45.983Z,21.10
2018-09-30T13:16:55.594Z,21.10
2018-09-30T13:18:05.206Z,21.40
2018-09-30T13:19:14.801Z,21.50
2018-09-30T13:20:24.451Z,21.60
2018-09-30T13:21:34.144Z,21.50
2018-09-30T13:22:44.078Z,21.60
2018-09-30T13:23:53.962Z,21.80
2018-09-30T13:25:03.635Z,21.90
2018-09-30T13:26:13.694Z,21.90
2018-09-30T13:27:23.246Z,21.90
2018-09-30T13:28:33.064Z,21.90
2018-09-30T13:29:42.641Z,22.00
2018-09-30T13:30:52.488Z,22.20
2018-09-30T13:32:02.259Z,22.50
2018-09-30T13:33:12.220Z,22.80
2018-09-30T13:34:21.937Z,23.00
2018-09-30T13:35:31.881Z,23.10
2018-09-30T13:36:41.493Z,23.10
2018-09-30T13:37:51.295Z,23.10
2018-09-30T13:39:00.766Z,23.20
2018-09-30T13:40:10.337Z,23.10
2018-09-30T13:41:19.977Z,23.30
2018-09-30T13:42:29.505Z,23.20
2018-09-30T13:43:39.158Z,23.10
2018-09-30T13:44:48.870Z,23.10
2018-09-30T13:45:58.758Z,22.90
2018-09-30T13:47:08.443Z,23.00
2018-09-30T13:48:18.085Z,23.40
2018-09-30T13:49:28.002Z,23.40
2018-09-30T13:50:37.936Z,23.40
2018-09-30T13:51:47.717Z,23.70
2018-09-30T13:52:57.507Z,23.50
2018-09-30T13:54:07.110Z,23.30
2018-09-30T13:55:16.769Z,23.40
2018-09-30T13:56:26.451Z,23.60
2018-09-30T13:57:36.273Z,23.80
2018-09-30T13:58:45.777Z,23.80
2018-09-30T13:59:55.610Z,23.70
2018-09-30T14:01:05.194Z,23.60
2018-09-30T14:02:15.011Z,23.60
2018-09-30T14:03:24.718Z,23.70
2018-09-30T14:04:34.323Z,23.80
2018-09-30T14:05:43.998Z,23.80
2018-09-30T14:06:53.618Z,23.90
2018-09-30T14:08:03.123Z,24.00
2018-09-30T14:09:12.884Z,23.90
2018-09-30T14:10:22.560Z,23.80
2018-09-30T14:11:32.372Z,23.60
2018-09-30T14:12:41.989Z,23.60
2018-09-30T14:13:51.466Z,23.50
2018-09-30T14:15:01.064Z,23.20
2018-09-30T14:16:10.881Z,22.80
2018-09-30T14:17:20.827Z,22.70
2018-09-30T14:18:30.769Z,22.70
2018-09-30T14:19:40.377Z,22.70
2018-09-30T14:20:49.861Z,22.70
2018-09-30T14:21:59.555Z,22.60
2018-09-30T14:23:09.032Z,22.50
2018-09-30T14:24:18.439Z,22.20
2018-09-30T14:25:28.400Z,22.10
2018-09-30T14:26:38.138Z,21.90
2018-09-30T14:27:47.869Z,21.80
2018-09-30T14:28:57.812Z,21.70
2018-09-30T14:30:07.389Z,21.70
2018-09-30T14:31:16.968Z,21.80
2018-09-30T14:32:26.636Z,21.80
2018-09-30T14:33:36.490Z,21.60
2018-09-30T14:34:46.306Z,21.40
2018-09-30T14:35:56.005Z,21.20
2018-09-30T14:37:05.909Z,21.10
2018-09-30T14:38:15.550Z,21.10
2018-09-30T14:39:24.946Z,21.10
2018-09-30T14:40:34.741Z,20.90
2018-09-30T14:41:44.576Z,20.80
2018-09-30T14:42:54.431Z,20.80
2018-09-30T14:44:04.046Z,20.80
2018-09-30T14:45:13.753Z,20.90
2018-09-30T14:46:23.445Z,20.90
2018-09-30T14:47:33.077Z,20.90
2018-09-30T14:48:42.813Z,21.00
2018-09-30T14:49:52.502Z,21.00
2018-09-30T14:51:02.295Z,21.00
2018-09-30T14:52:11.977Z,21.00
2018-09-30T14:53:21.852Z,20.90
2018-09-30T14:54:31.501Z,20.80
2018-09-30T14:55:41.218Z,20.80
2018-09-30T14:58:06.820Z,20.80
2018-09-30T14:59:16.501Z,20.80
2018-09-30T15:00:26.148Z,20.90
2018-09-30T15:01:35.900Z,20.80
2018-09-30T15:02:45.767Z,20.60
2018-09-30T15:03:55.630Z,20.60
2018-09-30T15:05:05.395Z,20.50
2018-09-30T15:06:15.333Z,20.60
2018-09-30T15:07:28.561Z,20.70
2018-09-30T15:08:38.315Z,20.70
2018-09-30T15:09:48.009Z,20.80
2018-09-30T15:10:57.713Z,20.70
2018-09-30T15:12:07.550Z,20.80
2018-09-30T15:13:20.904Z,20.80
2018-09-30T15:14:30.522Z,20.60
2018-09-30T15:15:40.140Z,20.70
2018-09-30T15:16:49.969Z,20.70
2018-09-30T15:18:04.985Z,20.60
2018-09-30T15:19:14.613Z,20.60
2018-09-30T15:20:24.498Z,20.60
2018-09-30T15:21:34.204Z,20.70
2018-09-30T15:22:43.633Z,20.60
2018-09-30T15:23:53.365Z,20.60
2018-09-30T15:25:03.181Z,20.60